createdAt,value
2023-04-01T00:01:19.875Z,93890.31
2023-04-01T00:03:48.474Z,93870.44
2023-04-01T00:06:20.197Z,93844.44
2023-04-01T00:08:49.030Z,93830.84
2023-04-01T00:11:20.623Z,93861.00
2023-04-01T00:13:50.245Z,93862.50
2023-04-01T00:16:22.301Z,93866.16
2023-04-01T00:18:52.242Z,93854.56
2023-04-01T00:21:21.679Z,93858.81
2023-04-01T00:23:50.351Z,93856.94
2023-04-01T00:26:22.461Z,93869.75
2023-04-01T00:28:51.661Z,93863.00
2023-04-01T00:31:20.100Z,93847.53
2023-04-01T00:33:48.435Z,93860.22
2023-04-01T00:36:19.316Z,93870.31
2023-04-01T00:38:48.053Z,93863.31
2023-04-01T00:41:18.215Z,93849.00
2023-04-01T00:43:49.964Z,93857.44
2023-04-01T00:46:18.383Z,93859.13
2023-04-01T00:48:49.827Z,93861.94
2023-04-01T00:51:20.990Z,93869.38
2023-04-01T00:53:52.674Z,93819.75
2023-04-01T00:56:24.850Z,93864.81
2023-04-01T00:58:59.918Z,93837.81
2023-04-01T01:01:30.249Z,93865.22
2023-04-01T01:03:58.693Z,93867.75
2023-04-01T01:06:41.176Z,93860.53
2023-04-01T01:09:17.366Z,93831.34
2023-04-01T01:11:51.010Z,93863.09
2023-04-01T01:14:29.845Z,93853.47
2023-04-01T01:17:04.424Z,93878.31
2023-04-01T01:19:55.338Z,93859.03
2023-04-01T01:22:54.554Z,93843.16
2023-04-01T01:25:34.524Z,93859.03
2023-04-01T01:28:24.434Z,93855.28
2023-04-01T01:30:59.708Z,93844.56
2023-04-01T01:34:02.113Z,93863.00
2023-04-01T01:36:35.980Z,93840.50
2023-04-01T01:39:07.738Z,93854.47
2023-04-01T01:41:37.398Z,93865.09
2023-04-01T01:44:09.713Z,93814.56
2023-04-01T01:46:40.778Z,93869.06
2023-04-01T01:49:13.175Z,93855.88
2023-04-01T01:51:44.222Z,93864.41
2023-04-01T01:54:15.239Z,93853.69
2023-04-01T01:56:45.540Z,93843.03
2023-04-01T01:59:15.273Z,93819.72
2023-04-01T02:01:48.855Z,93815.28
2023-04-01T02:04:19.407Z,93846.81
2023-04-01T02:06:53.997Z,93848.81
2023-04-01T02:09:23.165Z,93849.81
2023-04-01T02:11:54.021Z,93848.31
2023-04-01T02:14:24.865Z,93859.44
2023-04-01T02:16:57.606Z,93836.63
2023-04-01T02:19:31.794Z,93828.06
2023-04-01T02:22:04.994Z,93848.72
2023-04-01T02:24:37.534Z,93835.22
2023-04-01T02:27:06.953Z,93810.59
2023-04-01T02:29:35.545Z,93837.69
2023-04-01T02:32:05.481Z,93849.50
2023-04-01T02:34:34.141Z,93849.59
2023-04-01T02:37:04.211Z,93845.44
2023-04-01T02:39:32.832Z,93844.66
2023-04-01T02:42:01.856Z,93854.47
2023-04-01T02:44:30.587Z,93855.97
2023-04-01T02:46:59.223Z,93843.66
2023-04-01T02:49:27.592Z,93850.72
2023-04-01T02:51:55.984Z,93846.72
2023-04-01T02:54:25.729Z,93841.38
2023-04-01T02:56:54.266Z,93846.34
2023-04-01T02:59:22.705Z,93856.06
2023-04-01T03:01:51.056Z,93856.47
2023-04-01T03:04:19.393Z,93841.56
2023-04-01T03:06:47.798Z,93851.31
2023-04-01T03:09:16.396Z,93859.34
2023-04-01T03:11:46.117Z,93852.28
2023-04-01T03:14:14.417Z,93846.44
2023-04-01T03:16:42.795Z,93846.72
2023-04-01T03:19:11.191Z,93832.84
2023-04-01T03:21:39.509Z,93861.31
2023-04-01T03:24:09.032Z,93849.72
2023-04-01T03:26:37.306Z,93854.66
2023-04-01T03:29:07.807Z,93848.13
2023-04-01T03:31:36.470Z,93867.38
2023-04-01T03:34:04.800Z,93858.81
2023-04-01T03:36:33.468Z,93845.34
2023-04-01T03:39:02.019Z,93857.94
2023-04-01T03:41:30.291Z,93848.31
2023-04-01T03:43:58.813Z,93862.41
2023-04-01T03:46:28.625Z,93863.97
2023-04-01T03:48:57.116Z,93870.16
2023-04-01T03:51:25.417Z,93868.94
2023-04-01T03:53:53.771Z,93860.91
2023-04-01T03:56:22.105Z,93865.88
2023-04-01T03:58:53.386Z,93879.28
2023-04-01T04:01:23.787Z,93883.47
2023-04-01T04:03:53.776Z,93855.22
2023-04-01T04:06:22.265Z,93875.75
2023-04-01T04:08:50.952Z,93846.09
2023-04-01T04:11:19.696Z,93867.84
2023-04-01T04:13:48.918Z,93871.41
2023-04-01T04:16:17.859Z,93886.41
2023-04-01T04:18:46.307Z,93880.66
2023-04-01T04:21:17.487Z,93872.81
2023-04-01T04:23:46.017Z,93891.56
2023-04-01T04:26:16.671Z,93883.41
2023-04-01T04:28:45.177Z,93885.41
2023-04-01T04:31:13.793Z,93870.72
2023-04-01T04:33:42.218Z,93886.09
2023-04-01T04:36:11.309Z,93893.06
2023-04-01T04:38:41.109Z,93883.84
2023-04-01T04:41:12.949Z,93851.22
2023-04-01T04:43:41.661Z,93882.22
2023-04-01T04:46:10.475Z,93884.59
2023-04-01T04:48:39.214Z,93882.63
2023-04-01T04:51:07.597Z,93887.66
2023-04-01T04:53:35.857Z,93882.03
2023-04-01T04:56:05.694Z,93849.00
2023-04-01T04:58:34.874Z,93883.84
2023-04-01T05:01:08.512Z,93847.84
2023-04-01T05:03:36.662Z,93881.59
2023-04-01T05:06:06.067Z,93887.75
2023-04-01T05:08:35.253Z,93884.97
2023-04-01T05:11:04.334Z,93876.72
2023-04-01T05:13:34.011Z,93874.25
2023-04-01T05:16:02.335Z,93877.56
2023-04-01T05:18:30.609Z,93878.75
2023-04-01T05:20:59.513Z,93879.81
2023-04-01T05:23:27.881Z,93881.13
2023-04-01T05:25:58.100Z,93862.78
2023-04-01T05:28:26.445Z,93871.00
2023-04-01T05:30:56.267Z,93867.34
2023-04-01T05:33:24.554Z,93866.16
2023-04-01T05:35:52.901Z,93843.72
2023-04-01T05:38:21.430Z,93858.03
2023-04-01T05:40:49.874Z,93867.72
2023-04-01T05:43:18.641Z,93884.81
2023-04-01T05:45:46.959Z,93874.19
2023-04-01T05:48:16.872Z,93875.50
2023-04-01T05:50:45.199Z,93845.50
2023-04-01T05:53:13.617Z,93883.53
2023-04-01T05:55:41.920Z,93882.03
2023-04-01T05:58:10.282Z,93880.25
2023-04-01T06:00:38.644Z,93894.19
2023-04-01T06:03:07.076Z,93891.41
2023-04-01T06:05:42.015Z,93882.44
2023-04-01T06:08:14.258Z,93891.19
2023-04-01T06:10:52.876Z,93897.13
2023-04-01T06:13:32.799Z,93880.56
2023-04-01T06:16:10.108Z,93830.94
2023-04-01T06:18:50.984Z,93883.44
2023-04-01T06:21:51.255Z,93877.91
2023-04-01T06:24:34.079Z,93889.81
2023-04-01T06:27:14.798Z,93900.72
2023-04-01T06:29:58.870Z,93897.25
2023-04-01T06:32:41.612Z,93907.97
2023-04-01T06:35:54.794Z,93897.94
2023-04-01T06:38:39.047Z,93891.50
2023-04-01T06:41:32.447Z,93900.03
2023-04-01T06:44:14.011Z,93905.50
2023-04-01T06:46:48.413Z,93901.91
2023-04-01T06:49:35.984Z,93899.44
2023-04-01T06:52:15.878Z,93869.19
2023-04-01T06:54:49.592Z,93902.69
2023-04-01T06:57:23.036Z,93904.00
2023-04-01T06:59:52.740Z,93907.16
2023-04-01T07:02:31.324Z,93857.34
2023-04-01T07:05:02.049Z,93884.75
2023-04-01T07:07:37.810Z,93919.78
2023-04-01T07:10:14.067Z,93915.22
2023-04-01T07:12:49.018Z,93891.28
2023-04-01T07:15:21.894Z,93893.78
2023-04-01T07:17:56.463Z,93915.81
2023-04-01T07:20:28.626Z,93917.09
2023-04-01T07:23:01.184Z,93914.13
2023-04-01T07:25:36.100Z,93912.16
2023-04-01T07:28:07.724Z,93922.69
2023-04-01T07:30:55.859Z,93925.56
2023-04-01T07:33:31.520Z,93926.75
2023-04-01T07:36:05.652Z,93920.91
2023-04-01T07:38:45.728Z,93924.66
2023-04-01T07:41:23.828Z,93932.59
2023-04-01T07:44:05.282Z,93930.72
2023-04-01T07:46:55.842Z,93936.06
2023-04-01T07:49:30.477Z,93935.09
2023-04-01T07:52:03.967Z,93945.31
2023-04-01T07:54:41.246Z,93942.31
2023-04-01T07:57:16.980Z,93951.97
2023-04-01T07:59:56.338Z,93915.94
2023-04-01T08:02:37.205Z,93947.69
2023-04-01T08:05:17.246Z,93939.56
2023-04-01T08:07:53.472Z,93935.50
2023-04-01T08:10:25.969Z,93892.47
2023-04-01T08:13:05.853Z,93961.91
2023-04-01T08:15:41.831Z,93958.72
2023-04-01T08:18:23.987Z,93956.53
2023-04-01T08:20:57.473Z,93949.69
2023-04-01T08:23:28.278Z,93957.72
2023-04-01T08:26:03.791Z,93962.00
2023-04-01T08:28:39.732Z,93960.13
2023-04-01T08:31:14.986Z,93955.03
2023-04-01T08:33:46.842Z,93967.06
2023-04-01T08:36:20.276Z,93966.06
2023-04-01T08:38:56.898Z,93967.66
2023-04-01T08:42:09.930Z,93962.47
2023-04-01T08:45:16.893Z,93973.63
2023-04-01T08:48:13.430Z,93958.53
2023-04-01T08:51:20.549Z,93957.41
2023-04-01T08:54:11.444Z,93924.06
2023-04-01T08:56:45.435Z,93946.00
2023-04-01T08:59:35.273Z,93965.78
2023-04-01T09:02:42.224Z,93965.78
2023-04-01T09:05:39.300Z,93963.47
2023-04-01T09:08:21.297Z,93956.13
2023-04-01T09:11:23.975Z,93952.06
2023-04-01T09:14:25.720Z,93958.69
2023-04-01T09:17:21.918Z,93957.31
2023-04-01T09:20:12.484Z,93956.38
2023-04-01T09:23:00.119Z,93953.69
2023-04-01T09:25:53.392Z,93964.97
2023-04-01T09:28:24.460Z,93973.41
2023-04-01T09:31:16.472Z,93972.88
2023-04-01T09:34:12.352Z,93963.81
2023-04-01T09:36:48.882Z,93965.22
2023-04-01T09:39:39.075Z,93971.25
2023-04-01T09:42:43.872Z,93961.44
2023-04-01T09:45:30.067Z,93973.59
2023-04-01T09:48:12.294Z,93944.66
2023-04-01T09:50:51.598Z,93976.50
2023-04-01T09:53:39.108Z,93976.91
2023-04-01T09:56:50.678Z,93983.25
2023-04-01T09:59:50.787Z,93972.88
2023-04-01T10:03:00.970Z,93973.91
2023-04-01T10:06:18.860Z,93971.53
2023-04-01T10:09:20.539Z,93967.75
2023-04-01T10:12:39.049Z,93974.59
2023-04-01T10:15:31.157Z,93976.56
2023-04-01T10:18:25.599Z,93971.72
2023-04-01T10:21:23.265Z,93940.03
2023-04-01T10:24:28.749Z,93971.78
2023-04-01T10:27:36.616Z,93944.66
2023-04-01T10:30:48.149Z,93965.38
2023-04-01T10:33:40.711Z,93966.66
2023-04-01T10:36:46.315Z,93964.56
2023-04-01T10:40:05.290Z,93959.56
2023-04-01T10:43:12.636Z,93969.66
2023-04-01T10:46:17.022Z,93966.16
2023-04-01T10:49:32.922Z,93960.41
2023-04-01T10:52:35.643Z,93973.38
2023-04-01T10:55:37.960Z,93973.91
2023-04-01T10:58:37.043Z,93972.50
2023-04-01T11:01:43.418Z,93973.31
2023-04-01T11:04:55.753Z,93976.03
2023-04-01T11:08:06.518Z,93977.06
2023-04-01T11:11:15.800Z,93967.34
2023-04-01T11:14:13.605Z,93962.22
2023-04-01T11:17:20.099Z,93944.59
2023-04-01T11:20:13.019Z,93967.19
2023-04-01T11:23:15.745Z,93974.97
2023-04-01T11:26:12.650Z,93983.66
2023-04-01T11:29:07.051Z,93988.44
2023-04-01T11:31:45.965Z,93982.59
2023-04-01T11:34:42.169Z,93969.63
2023-04-01T11:37:21.064Z,93983.00
2023-04-01T11:40:00.559Z,93950.69
2023-04-01T11:42:43.080Z,93974.53
2023-04-01T11:45:25.092Z,93982.31
2023-04-01T11:48:10.686Z,93987.69
2023-04-01T11:50:56.817Z,93998.97
2023-04-01T11:53:42.351Z,93993.88
2023-04-01T11:56:21.790Z,93987.38
2023-04-01T11:59:17.351Z,93998.78
2023-04-01T12:01:55.693Z,93942.38
2023-04-01T12:04:49.598Z,94006.53
2023-04-01T12:07:25.934Z,94002.94
2023-04-01T12:10:05.568Z,94006.13
2023-04-01T12:12:54.101Z,94000.28
2023-04-01T12:15:39.392Z,93977.31
2023-04-01T12:18:18.506Z,93998.78
2023-04-01T12:20:54.415Z,94005.91
2023-04-01T12:23:48.649Z,94012.09
2023-04-01T12:26:33.011Z,94014.56
2023-04-01T12:29:22.199Z,94018.06
2023-04-01T12:31:59.112Z,94030.28
2023-04-01T12:34:51.477Z,94018.25
2023-04-01T12:37:28.026Z,93967.56
2023-04-01T12:40:25.856Z,94027.25
2023-04-01T12:43:08.493Z,93992.03
2023-04-01T12:45:42.862Z,94021.53
2023-04-01T12:48:33.871Z,94014.13
2023-04-01T12:51:37.208Z,94024.25
2023-04-01T12:54:26.766Z,94019.97
2023-04-01T12:57:13.296Z,94023.47
2023-04-01T13:00:06.202Z,94003.44
2023-04-01T13:02:47.677Z,94018.53
2023-04-01T13:05:31.726Z,94026.00
2023-04-01T13:08:08.228Z,94023.47
2023-04-01T13:11:03.844Z,94025.56
2023-04-01T13:14:02.288Z,94014.94
2023-04-01T13:16:34.533Z,94028.28
2023-04-01T13:19:09.455Z,94030.22
2023-04-01T13:21:53.343Z,94044.50
2023-04-01T13:24:33.594Z,94031.50
2023-04-01T13:27:12.001Z,94032.78
2023-04-01T13:29:45.446Z,94035.13
2023-04-01T13:32:42.426Z,94032.28
2023-04-01T13:35:26.157Z,94040.38
2023-04-01T13:38:10.890Z,94032.59
2023-04-01T13:41:01.710Z,94035.13
2023-04-01T13:43:37.214Z,94040.22
2023-04-01T13:46:22.961Z,94036.28
2023-04-01T13:49:19.541Z,93992.97
2023-04-01T13:52:15.470Z,94041.34
2023-04-01T13:55:04.656Z,94012.31
2023-04-01T13:57:56.125Z,94048.63
2023-04-01T14:00:43.303Z,94045.47
2023-04-01T14:03:31.096Z,94038.81
2023-04-01T14:06:08.739Z,94045.75
2023-04-01T14:08:53.488Z,94048.31
2023-04-01T14:11:29.873Z,94049.75
2023-04-01T14:14:09.956Z,94045.94
2023-04-01T14:17:20.249Z,94044.81
2023-04-01T14:20:04.774Z,94058.41
2023-04-01T14:22:41.844Z,94061.72
2023-04-01T14:25:45.738Z,94056.81
2023-04-01T14:28:25.825Z,94052.03
2023-04-01T14:31:23.246Z,94061.22
2023-04-01T14:34:05.584Z,94061.38
2023-04-01T14:36:48.140Z,94058.53
2023-04-01T14:39:42.188Z,94070.06
2023-04-01T14:42:36.498Z,94075.59
2023-04-01T14:45:31.138Z,94073.66
2023-04-01T14:48:08.781Z,94080.78
2023-04-01T14:50:46.331Z,93846.06
2023-04-01T14:53:29.897Z,94031.28
2023-04-01T14:56:01.948Z,94072.72
2023-04-01T14:58:47.225Z,94062.97
2023-04-01T15:01:43.933Z,94057.84
2023-04-01T15:04:32.327Z,94099.06
2023-04-01T15:07:17.982Z,94077.81
2023-04-01T15:09:56.942Z,94097.00
2023-04-01T15:12:32.467Z,94077.97
2023-04-01T15:15:25.313Z,94070.66
2023-04-01T15:18:07.855Z,94098.09
2023-04-01T15:21:05.144Z,94099.78
2023-04-01T15:23:52.143Z,94105.06
2023-04-01T15:26:33.034Z,94073.28
2023-04-01T15:29:29.571Z,94103.16
2023-04-01T15:32:04.348Z,94099.66
2023-04-01T15:34:42.780Z,94101.88
2023-04-01T15:37:21.996Z,94112.47
2023-04-01T15:40:00.265Z,94111.84
2023-04-01T15:42:43.584Z,94094.19
2023-04-01T15:45:26.872Z,94116.59
2023-04-01T15:48:03.792Z,94114.06
2023-04-01T15:50:54.307Z,94118.47
2023-04-01T15:53:49.984Z,94129.41
2023-04-01T15:56:44.396Z,94126.66
2023-04-01T15:59:27.723Z,94098.25
2023-04-01T16:02:02.959Z,94133.44
2023-04-01T16:04:51.524Z,94135.03
2023-04-01T16:07:46.152Z,94142.44
2023-04-01T16:10:34.804Z,94143.25
2023-04-01T16:13:17.498Z,94142.63
2023-04-01T16:15:50.251Z,94085.03
2023-04-01T16:18:35.359Z,94137.38
2023-04-01T16:21:07.224Z,94144.03
2023-04-01T16:23:44.937Z,94147.03
2023-04-01T16:26:21.747Z,94147.81
2023-04-01T16:28:56.965Z,94149.00
2023-04-01T16:31:44.784Z,94148.63
2023-04-01T16:34:20.504Z,94153.41
2023-04-01T16:36:52.952Z,94154.72
2023-04-01T16:39:33.494Z,94149.22
2023-04-01T16:42:19.449Z,94167.19
2023-04-01T16:44:53.694Z,94174.75
2023-04-01T16:47:29.649Z,94176.84
2023-04-01T16:50:07.774Z,94175.84
2023-04-01T16:52:50.843Z,94178.31
2023-04-01T16:55:23.161Z,94183.72
2023-04-01T16:57:54.148Z,94191.69
2023-04-01T17:00:29.547Z,94185.41
2023-04-01T17:03:07.013Z,94193.19
2023-04-01T17:05:51.735Z,94195.72
2023-04-01T17:08:35.792Z,94184.84
2023-04-01T17:11:11.185Z,94197.31
2023-04-01T17:13:48.451Z,94202.56
2023-04-01T17:16:41.387Z,94148.84
2023-04-01T17:19:21.050Z,94209.56
2023-04-01T17:22:02.632Z,94212.25
2023-04-01T17:24:44.347Z,94218.41
2023-04-01T17:27:28.583Z,94215.53
2023-04-01T17:30:19.683Z,94225.78
2023-04-01T17:33:00.189Z,94219.03
2023-04-01T17:35:34.497Z,94232.38
2023-04-01T17:38:15.917Z,94191.34
2023-04-01T17:40:58.760Z,94221.63
2023-04-01T17:43:39.009Z,94236.72
2023-04-01T17:46:26.569Z,94241.28
2023-04-01T17:49:04.239Z,94242.41
2023-04-01T17:51:39.741Z,94247.28
2023-04-01T17:54:23.760Z,94252.66
2023-04-01T17:57:04.212Z,94257.53
2023-04-01T17:59:40.356Z,94266.19
2023-04-01T18:02:25.539Z,94271.97
2023-04-01T18:05:27.542Z,94267.69
2023-04-01T18:08:20.136Z,94272.25
2023-04-01T18:11:00.899Z,94274.78
2023-04-01T18:13:56.275Z,94275.06
2023-04-01T18:16:37.552Z,94250.25
2023-04-01T18:19:15.997Z,94275.16
2023-04-01T18:21:50.806Z,94287.31
2023-04-01T18:24:26.344Z,94288.09
2023-04-01T18:27:06.496Z,94291.28
2023-04-01T18:29:42.938Z,94292.69
2023-04-01T18:32:26.796Z,94297.47
2023-04-01T18:35:02.863Z,94315.75
2023-04-01T18:37:37.243Z,94310.38
2023-04-01T18:40:18.499Z,94306.13
2023-04-01T18:43:00.805Z,94314.19
2023-04-01T18:45:35.097Z,94309.56
2023-04-01T18:48:16.805Z,94313.06
2023-04-01T18:50:53.855Z,94314.78
2023-04-01T18:53:31.456Z,94324.72
2023-04-01T18:56:03.354Z,94114.88
2023-04-01T18:58:36.988Z,94319.53
2023-04-01T19:01:20.022Z,94325.59
2023-04-01T19:04:03.493Z,94344.41
2023-04-01T19:06:38.665Z,94346.31
2023-04-01T19:09:25.202Z,94320.09
2023-04-01T19:12:17.775Z,94342.41
2023-04-01T19:15:04.886Z,94362.72
2023-04-01T19:17:45.896Z,94307.94
2023-04-01T19:20:25.168Z,94356.25
2023-04-01T19:23:14.756Z,94361.31
2023-04-01T19:25:52.855Z,94362.59
2023-04-01T19:28:36.987Z,94363.63
2023-04-01T19:31:19.006Z,94334.22
2023-04-01T19:34:02.472Z,94339.06
2023-04-01T19:36:40.390Z,94371.56
2023-04-01T19:39:25.918Z,94353.00
2023-04-01T19:42:04.319Z,94353.59
2023-04-01T19:44:44.849Z,94359.47
2023-04-01T19:47:24.397Z,94382.38
2023-04-01T19:50:08.354Z,94380.47
2023-04-01T19:52:42.881Z,94387.75
2023-04-01T19:55:30.663Z,94393.13
2023-04-01T19:58:07.069Z,94389.44
2023-04-01T20:00:40.424Z,94392.13
2023-04-01T20:03:29.028Z,94403.94
2023-04-01T20:06:11.993Z,94405.84
2023-04-01T20:08:48.951Z,94409.31
2023-04-01T20:11:33.586Z,94408.25
2023-04-01T20:14:14.320Z,94422.66
2023-04-01T20:17:15.915Z,94426.16
2023-04-01T20:19:51.746Z,94432.31
2023-04-01T20:22:32.022Z,94426.47
2023-04-01T20:25:08.254Z,94430.91
2023-04-01T20:27:43.137Z,94431.53
2023-04-01T20:30:35.827Z,94444.97
2023-04-01T20:33:21.568Z,94403.69
2023-04-01T20:36:01.150Z,94413.56
2023-04-01T20:39:12.251Z,94449.16
2023-04-01T20:41:56.432Z,94460.72
2023-04-01T20:44:36.973Z,94462.00
2023-04-01T20:47:17.429Z,94464.69
2023-04-01T20:49:55.353Z,94462.09
2023-04-01T20:52:32.194Z,94463.19
2023-04-01T20:55:29.347Z,94464.28
2023-04-01T20:58:11.488Z,94468.63
2023-04-01T21:00:51.843Z,94471.81
2023-04-01T21:03:32.255Z,94471.22
2023-04-01T21:06:22.077Z,94434.97
2023-04-01T21:09:05.183Z,94476.34
2023-04-01T21:11:42.415Z,94455.06
2023-04-01T21:14:36.649Z,94477.63
2023-04-01T21:17:09.005Z,94481.09
2023-04-01T21:19:49.731Z,94484.81
2023-04-01T21:22:39.338Z,94493.09
2023-04-01T21:25:31.706Z,94494.69
2023-04-01T21:28:24.680Z,94502.47
2023-04-01T21:31:37.973Z,94506.22
2023-04-01T21:34:35.232Z,94504.63
2023-04-01T21:37:28.537Z,94510.00
2023-04-01T21:40:17.982Z,94472.25
2023-04-01T21:42:53.101Z,94514.59
2023-04-01T21:45:40.106Z,94524.75
2023-04-01T21:48:50.980Z,94535.75
2023-04-01T21:51:48.858Z,94526.91
2023-04-01T21:55:03.600Z,94534.16
2023-04-01T21:57:57.536Z,94532.84
2023-04-01T22:00:28.284Z,94500.16
2023-04-01T22:03:34.747Z,94541.22
2023-04-01T22:06:19.626Z,94517.56
2023-04-01T22:09:02.485Z,94546.69
2023-04-01T22:11:40.940Z,94543.84
2023-04-01T22:14:18.766Z,94552.63
2023-04-01T22:16:53.062Z,94507.06
2023-04-01T22:19:25.169Z,94558.47
2023-04-01T22:22:04.107Z,94557.09
2023-04-01T22:24:50.658Z,94566.44
2023-04-01T22:27:27.468Z,94570.44
2023-04-01T22:30:06.175Z,94576.13
2023-04-01T22:32:43.132Z,94546.31
2023-04-01T22:35:24.195Z,94577.19
2023-04-01T22:38:01.257Z,94580.41
2023-04-01T22:40:41.761Z,94578.22
2023-04-01T22:43:13.843Z,94586.56
2023-04-01T22:46:12.689Z,94586.84
2023-04-01T22:48:46.756Z,94584.44
2023-04-01T22:51:20.444Z,94587.94
2023-04-01T22:53:56.666Z,94585.44
2023-04-01T22:56:32.850Z,94596.56
2023-04-01T22:59:10.928Z,94603.53
2023-04-01T23:01:46.885Z,94600.34
2023-04-01T23:04:20.474Z,94575.81
2023-04-01T23:06:54.909Z,94608.97
2023-04-01T23:09:26.318Z,94610.56
2023-04-01T23:11:58.203Z,94611.09
2023-04-01T23:14:39.403Z,94613.78
2023-04-01T23:17:19.972Z,94595.16
2023-04-01T23:19:54.947Z,94627.25
2023-04-01T23:22:31.082Z,94613.44
2023-04-01T23:25:07.310Z,94625.75
2023-04-01T23:27:42.012Z,94631.69
2023-04-01T23:30:48.814Z,94635.19
2023-04-01T23:33:23.992Z,94623.75
2023-04-01T23:35:54.077Z,94626.19
2023-04-01T23:38:25.102Z,94650.22
2023-04-01T23:40:56.143Z,94642.94
2023-04-01T23:43:29.623Z,94654.22
2023-04-01T23:45:58.528Z,94653.09
2023-04-01T23:48:30.706Z,94644.03
2023-04-01T23:51:00.367Z,94655.03
2023-04-01T23:53:33.312Z,94640.41
2023-04-01T23:56:03.423Z,94630.50
2023-04-01T23:58:44.177Z,94675.69
